createdAt,value
2022-11-14T00:00:48.537Z,29.10
2022-11-14T00:03:35.069Z,33.00
2022-11-14T00:06:21.646Z,26.00
2022-11-14T00:09:08.492Z,39.20
2022-11-14T00:11:56.260Z,47.10
2022-11-14T00:14:43.084Z,52.70
2022-11-14T00:17:29.728Z,38.80
2022-11-14T00:20:16.220Z,33.80
2022-11-14T00:23:03.339Z,26.90
2022-11-14T00:25:51.116Z,29.80
2022-11-14T00:28:37.749Z,31.40
2022-11-14T00:31:24.636Z,25.00
2022-11-14T00:34:11.450Z,30.30
2022-11-14T00:36:58.302Z,20.70
2022-11-14T00:39:44.962Z,18.20
2022-11-14T00:42:31.462Z,20.10
2022-11-14T00:45:18.239Z,16.90
2022-11-14T00:48:05.273Z,12.80
2022-11-14T00:50:51.644Z,14.00
2022-11-14T00:53:38.238Z,13.30
2022-11-14T00:56:25.185Z,7.00
2022-11-14T00:59:11.622Z,13.30
2022-11-14T01:01:58.525Z,13.60
2022-11-14T01:04:45.433Z,13.70
2022-11-14T01:07:32.243Z,10.10
2022-11-14T01:10:19.982Z,14.40
2022-11-14T01:13:06.980Z,16.80
2022-11-14T01:15:55.046Z,12.80
2022-11-14T01:18:42.369Z,10.80
2022-11-14T01:21:29.284Z,14.30
2022-11-14T01:24:16.288Z,14.10
2022-11-14T01:27:03.195Z,10.70
2022-11-14T01:29:50.529Z,11.50
2022-11-14T01:32:36.941Z,8.60
2022-11-14T01:35:23.584Z,11.20
2022-11-14T01:38:14.543Z,12.40
2022-11-14T01:41:01.713Z,10.20
2022-11-14T01:43:48.941Z,9.40
2022-11-14T01:46:39.993Z,11.50
2022-11-14T01:49:34.695Z,10.90
2022-11-14T01:52:28.933Z,14.80
2022-11-14T01:55:15.902Z,10.40
2022-11-14T01:58:03.259Z,10.20
2022-11-14T02:00:50.200Z,11.20
2022-11-14T02:03:39.695Z,11.20
2022-11-14T02:06:30.579Z,12.40
2022-11-14T02:09:17.310Z,18.30
2022-11-14T02:12:08.903Z,10.50
2022-11-14T02:14:57.436Z,16.90
2022-11-14T02:17:44.779Z,18.60
2022-11-14T02:20:37.339Z,18.00
2022-11-14T02:23:29.164Z,13.80
2022-11-14T02:26:20.104Z,15.30
2022-11-14T02:29:09.124Z,19.50
2022-11-14T02:31:55.490Z,17.60
2022-11-14T02:34:42.272Z,15.90
2022-11-14T02:37:29.089Z,17.50
2022-11-14T02:40:15.642Z,15.50
2022-11-14T02:43:01.996Z,15.10
2022-11-14T02:45:48.800Z,19.10
2022-11-14T02:48:35.634Z,20.70
2022-11-14T02:51:22.337Z,29.80
2022-11-14T02:54:08.961Z,29.00
2022-11-14T02:56:55.782Z,22.10
2022-11-14T02:59:42.609Z,40.20
2022-11-14T03:02:29.701Z,28.20
2022-11-14T03:05:16.801Z,27.30
2022-11-14T03:08:03.518Z,21.90
2022-11-14T03:10:50.762Z,17.40
2022-11-14T03:13:38.514Z,16.20
2022-11-14T03:16:24.974Z,19.70
2022-11-14T03:19:11.665Z,23.30
2022-11-14T03:21:58.390Z,22.30
2022-11-14T03:24:45.086Z,25.30
2022-11-14T03:27:31.759Z,21.70
2022-11-14T03:30:18.563Z,23.70
2022-11-14T03:33:04.928Z,22.90
2022-11-14T03:35:53.199Z,28.90
2022-11-14T03:38:39.978Z,31.30
2022-11-14T03:41:26.630Z,37.50
2022-11-14T03:44:13.656Z,35.50
2022-11-14T03:47:00.096Z,56.10
2022-11-14T03:49:46.442Z,40.00
2022-11-14T03:52:33.194Z,56.80
2022-11-14T03:55:19.831Z,58.50
2022-11-14T03:58:06.442Z,46.40
2022-11-14T04:00:56.044Z,46.50
2022-11-14T04:03:42.984Z,41.40
2022-11-14T04:06:30.284Z,38.40
2022-11-14T04:09:16.927Z,30.20
2022-11-14T04:12:04.333Z,33.90
2022-11-14T04:14:51.200Z,26.00
2022-11-14T04:17:39.958Z,39.50
2022-11-14T04:20:26.982Z,32.90
2022-11-14T04:23:13.681Z,50.80
2022-11-14T04:26:00.500Z,56.20
2022-11-14T04:28:47.164Z,33.50
2022-11-14T04:31:34.185Z,47.80
2022-11-14T04:34:20.874Z,42.30
2022-11-14T04:37:07.806Z,48.20
2022-11-14T04:39:59.059Z,52.40
2022-11-14T04:42:45.851Z,45.30
2022-11-14T04:45:32.719Z,26.20
2022-11-14T04:48:19.477Z,36.50
2022-11-14T04:51:06.581Z,36.80
2022-11-14T04:53:53.806Z,39.80
2022-11-14T04:56:40.617Z,29.90
2022-11-14T04:59:27.243Z,35.80
2022-11-14T05:02:14.051Z,39.50
2022-11-14T05:05:00.943Z,42.60
2022-11-14T05:07:47.711Z,43.40
2022-11-14T05:10:34.572Z,55.10
2022-11-14T05:13:21.625Z,48.20
2022-11-14T05:16:08.737Z,45.70
2022-11-14T05:18:58.424Z,56.90
2022-11-14T05:21:45.651Z,48.10
2022-11-14T05:24:33.072Z,32.50
2022-11-14T05:27:20.042Z,39.00
2022-11-14T05:30:07.899Z,30.10
2022-11-14T05:32:54.553Z,32.50
2022-11-14T05:35:41.412Z,17.60
2022-11-14T05:38:29.196Z,23.40
2022-11-14T05:41:20.174Z,12.10
2022-11-14T05:44:07.290Z,16.30
2022-11-14T05:46:53.919Z,18.50
2022-11-14T05:49:40.784Z,35.60
2022-11-14T05:52:28.010Z,8.90
2022-11-14T05:55:15.088Z,12.30
2022-11-14T05:58:02.059Z,17.50
2022-11-14T06:00:53.993Z,10.50
2022-11-14T06:03:44.971Z,4.80
2022-11-14T06:06:33.002Z,11.60
2022-11-14T06:09:20.573Z,14.60
2022-11-14T06:12:08.871Z,23.10
2022-11-14T06:14:55.716Z,14.40
2022-11-14T06:17:42.727Z,13.20
2022-11-14T06:20:29.756Z,11.00
2022-11-14T06:23:21.945Z,13.10
2022-11-14T06:26:19.708Z,9.90
2022-11-14T06:29:07.911Z,10.60
2022-11-14T06:31:54.945Z,14.70
2022-11-14T06:34:41.950Z,20.80
2022-11-14T06:37:33.387Z,13.90
2022-11-14T06:40:21.088Z,12.70
2022-11-14T06:43:07.670Z,11.40
2022-11-14T06:45:55.742Z,11.20
2022-11-14T06:48:44.144Z,11.80
2022-11-14T06:51:31.336Z,13.60
2022-11-14T06:54:18.030Z,16.60
2022-11-14T06:57:04.622Z,12.00
2022-11-14T06:59:51.540Z,11.10
2022-11-14T07:02:38.383Z,17.60
2022-11-14T07:05:24.958Z,13.70
2022-11-14T07:08:11.661Z,10.20
2022-11-14T07:11:08.028Z,13.60
2022-11-14T07:13:57.942Z,9.10
2022-11-14T07:16:45.192Z,14.60
2022-11-14T07:19:31.989Z,17.10
2022-11-14T07:22:19.083Z,25.50
2022-11-14T07:25:06.278Z,18.60
2022-11-14T07:27:52.668Z,20.80
2022-11-14T07:30:39.666Z,12.60
2022-11-14T07:33:26.960Z,13.70
2022-11-14T07:36:16.423Z,9.40
2022-11-14T07:39:03.480Z,10.90
2022-11-14T07:41:50.411Z,12.90
2022-11-14T07:44:37.323Z,11.00
2022-11-14T07:47:24.435Z,11.20
2022-11-14T07:50:15.119Z,13.10
2022-11-14T07:53:04.832Z,19.20
2022-11-14T07:55:52.913Z,24.20
2022-11-14T07:58:42.039Z,21.50
2022-11-14T08:01:30.696Z,21.50
2022-11-14T08:04:17.813Z,21.90
2022-11-14T08:07:04.995Z,24.30
2022-11-14T08:09:52.147Z,28.40
2022-11-14T08:12:40.906Z,34.00
2022-11-14T08:15:28.249Z,38.40
2022-11-14T08:18:15.492Z,27.50
2022-11-14T08:21:05.421Z,21.30
2022-11-14T08:23:53.094Z,23.40
2022-11-14T08:26:40.004Z,21.60
2022-11-14T08:29:27.072Z,24.50
2022-11-14T08:32:20.471Z,22.20
2022-11-14T08:35:08.697Z,19.00
2022-11-14T08:37:58.005Z,16.90
2022-11-14T08:40:45.176Z,20.30
2022-11-14T08:43:32.716Z,15.20
2022-11-14T08:46:19.901Z,13.50
2022-11-14T08:49:06.661Z,14.30
2022-11-14T08:51:54.407Z,16.10
2022-11-14T08:54:41.416Z,22.30
2022-11-14T08:57:28.813Z,21.60
2022-11-14T09:00:16.392Z,19.10
2022-11-14T09:03:14.833Z,18.30
2022-11-14T09:06:02.771Z,18.50
2022-11-14T09:08:50.002Z,18.10
2022-11-14T09:11:36.642Z,17.20
2022-11-14T09:14:23.873Z,20.40
2022-11-14T09:17:11.183Z,23.90
2022-11-14T09:19:58.700Z,24.70
2022-11-14T09:22:47.156Z,19.80
2022-11-14T09:25:34.239Z,18.10
2022-11-14T09:28:24.321Z,17.80
2022-11-14T09:31:13.866Z,18.70
2022-11-14T09:34:00.974Z,16.80
2022-11-14T09:36:48.255Z,15.40
2022-11-14T09:39:39.754Z,14.30
2022-11-14T09:42:55.209Z,16.00
2022-11-14T09:45:48.409Z,16.20
2022-11-14T09:48:35.603Z,19.50
2022-11-14T09:51:28.663Z,16.80
2022-11-14T09:54:29.085Z,23.40
2022-11-14T09:57:18.420Z,13.30
2022-11-14T10:00:16.368Z,7.60
2022-11-14T10:03:22.648Z,14.20
2022-11-14T10:06:24.796Z,10.40
2022-11-14T10:09:36.094Z,16.50
2022-11-14T10:12:31.984Z,19.70
2022-11-14T10:15:43.273Z,12.00
2022-11-14T10:18:33.545Z,12.30
2022-11-14T10:21:50.846Z,13.90
2022-11-14T10:25:10.612Z,14.00
2022-11-14T10:28:10.019Z,16.00
2022-11-14T10:31:14.666Z,15.20
2022-11-14T10:34:22.864Z,16.50
2022-11-14T10:37:23.560Z,17.60
2022-11-14T10:40:19.881Z,18.60
2022-11-14T10:43:18.500Z,12.70
2022-11-14T10:46:15.535Z,16.10
2022-11-14T10:49:03.621Z,18.30
2022-11-14T10:51:56.171Z,18.70
2022-11-14T10:54:53.591Z,15.40
2022-11-14T10:57:41.164Z,20.60
2022-11-14T11:00:28.472Z,19.80
2022-11-14T11:03:15.919Z,15.20
2022-11-14T11:06:03.333Z,18.30
2022-11-14T11:09:08.950Z,12.80
2022-11-14T11:12:02.545Z,12.50
2022-11-14T11:15:11.582Z,18.00
2022-11-14T11:18:01.175Z,20.40
2022-11-14T11:21:02.484Z,21.20
2022-11-14T11:23:58.050Z,31.00
2022-11-14T11:26:45.025Z,24.90
2022-11-14T11:29:32.561Z,24.30
2022-11-14T11:32:29.573Z,32.50
2022-11-14T11:35:18.083Z,37.00
2022-11-14T11:38:06.873Z,28.90
2022-11-14T11:41:02.495Z,20.50
2022-11-14T11:43:57.250Z,16.70
2022-11-14T11:46:52.627Z,18.10
2022-11-14T11:49:53.751Z,21.70
2022-11-14T11:52:49.463Z,17.50
2022-11-14T11:55:44.520Z,14.20
2022-11-14T11:58:40.756Z,19.10
2022-11-14T12:01:28.087Z,11.90
2022-11-14T12:04:15.249Z,13.80
2022-11-14T12:07:12.519Z,18.80
2022-11-14T12:10:11.374Z,15.30
2022-11-14T12:13:20.279Z,17.10
2022-11-14T12:16:23.906Z,17.50
2022-11-14T12:19:33.570Z,23.10
2022-11-14T12:22:23.572Z,18.50
2022-11-14T12:25:25.736Z,20.00
2022-11-14T12:28:18.280Z,17.40
2022-11-14T12:31:11.171Z,16.20
2022-11-14T12:34:02.175Z,18.50
2022-11-14T12:36:49.404Z,20.40
2022-11-14T12:39:37.511Z,22.40
2022-11-14T12:42:25.159Z,26.00
2022-11-14T12:45:36.795Z,21.20
2022-11-14T12:48:26.353Z,20.00
2022-11-14T12:51:25.745Z,23.60
2022-11-14T12:54:47.155Z,20.40
2022-11-14T12:57:48.341Z,26.10
2022-11-14T13:00:47.247Z,25.10
2022-11-14T13:04:09.361Z,22.50
2022-11-14T13:07:00.007Z,20.60
2022-11-14T13:10:13.779Z,22.80
2022-11-14T13:13:28.685Z,23.30
2022-11-14T13:16:45.269Z,26.90
2022-11-14T13:19:54.008Z,31.00
2022-11-14T13:22:42.923Z,24.10
2022-11-14T13:25:30.169Z,26.90
2022-11-14T13:28:52.757Z,31.90
2022-11-14T13:31:47.242Z,25.90
2022-11-14T13:34:44.514Z,23.90
2022-11-14T13:37:50.274Z,21.00
2022-11-14T13:40:40.704Z,26.20
2022-11-14T13:43:46.518Z,20.70
2022-11-14T13:47:08.651Z,26.00
2022-11-14T13:50:06.802Z,26.10
2022-11-14T13:52:54.632Z,25.40
2022-11-14T13:56:04.833Z,32.10
2022-11-14T13:59:10.392Z,23.10
2022-11-14T14:02:21.068Z,30.40
2022-11-14T14:05:29.518Z,23.60
2022-11-14T14:08:39.869Z,28.30
2022-11-14T14:11:46.975Z,39.70
2022-11-14T14:14:49.748Z,45.50
2022-11-14T14:17:45.708Z,47.70
2022-11-14T14:20:38.401Z,52.60
2022-11-14T14:23:44.383Z,42.50
2022-11-14T14:26:56.617Z,50.00
2022-11-14T14:29:53.005Z,50.80
2022-11-14T14:32:40.646Z,49.30
2022-11-14T14:35:35.575Z,54.80
2022-11-14T14:38:28.210Z,44.20
2022-11-14T14:41:19.094Z,45.60
2022-11-14T14:44:06.863Z,46.10
2022-11-14T14:46:54.862Z,44.80
2022-11-14T14:49:42.217Z,41.60
2022-11-14T14:52:31.564Z,39.10
2022-11-14T14:55:27.110Z,46.30
2022-11-14T14:58:23.243Z,41.70
2022-11-14T15:01:23.870Z,41.40
2022-11-14T15:04:15.946Z,43.00
2022-11-14T15:07:04.725Z,44.00
2022-11-14T15:09:58.455Z,45.60
2022-11-14T15:12:45.729Z,50.00
2022-11-14T15:15:34.765Z,37.70
2022-11-14T15:18:30.896Z,37.50
2022-11-14T15:21:21.944Z,36.10
2022-11-14T15:24:17.897Z,34.40
2022-11-14T15:27:26.240Z,30.60
2022-11-14T15:30:40.035Z,40.60
2022-11-14T15:33:34.206Z,48.10
2022-11-14T15:36:22.587Z,59.00
2022-11-14T15:39:28.517Z,55.30
2022-11-14T15:42:27.200Z,44.10
2022-11-14T15:45:28.905Z,56.90
2022-11-14T15:48:19.448Z,50.80
2022-11-14T15:51:06.628Z,49.10
2022-11-14T15:53:54.963Z,39.20
2022-11-14T15:56:42.604Z,47.00
2022-11-14T15:59:31.212Z,46.90
2022-11-14T16:02:22.860Z,38.60
2022-11-14T16:05:14.210Z,45.30
2022-11-14T16:08:01.618Z,44.40
2022-11-14T16:10:52.019Z,35.80
2022-11-14T16:13:39.827Z,47.20
2022-11-14T16:16:26.805Z,43.30
2022-11-14T16:19:19.113Z,45.20
2022-11-14T16:22:07.599Z,46.40
2022-11-14T16:24:54.781Z,41.60
2022-11-14T16:27:42.100Z,38.00
2022-11-14T16:30:31.842Z,40.30
2022-11-14T16:33:19.940Z,44.70
2022-11-14T16:36:07.104Z,42.30
2022-11-14T16:39:00.017Z,51.30
2022-11-14T16:41:48.589Z,56.80
2022-11-14T16:44:41.110Z,54.80
2022-11-14T16:47:37.392Z,60.00
2022-11-14T16:50:24.866Z,68.40
2022-11-14T16:53:11.770Z,58.70
2022-11-14T16:55:58.753Z,64.50
2022-11-14T16:58:45.286Z,54.10
2022-11-14T17:01:33.237Z,62.60
2022-11-14T17:04:22.556Z,47.20
2022-11-14T17:07:11.880Z,37.00
2022-11-14T17:10:01.005Z,28.40
2022-11-14T17:12:48.345Z,34.70
2022-11-14T17:15:36.248Z,35.00
2022-11-14T17:18:23.561Z,33.70
2022-11-14T17:21:13.604Z,25.70
2022-11-14T17:24:01.775Z,22.80
2022-11-14T17:26:49.306Z,25.60
2022-11-14T17:29:36.507Z,27.90
2022-11-14T17:32:23.566Z,25.70
2022-11-14T17:35:11.073Z,27.80
2022-11-14T17:38:00.458Z,29.20
2022-11-14T17:40:47.631Z,31.70
2022-11-14T17:43:39.541Z,38.20
2022-11-14T17:46:28.202Z,36.20
2022-11-14T17:49:15.253Z,39.90
2022-11-14T17:52:02.240Z,55.00
2022-11-14T17:54:49.120Z,49.50
2022-11-14T17:57:36.276Z,51.20
2022-11-14T18:00:24.516Z,45.10
2022-11-14T18:03:12.700Z,44.20
2022-11-14T18:06:08.373Z,43.50
2022-11-14T18:08:56.046Z,31.10
2022-11-14T18:11:42.723Z,46.30
2022-11-14T18:14:29.649Z,42.60
2022-11-14T18:17:16.566Z,35.30
2022-11-14T18:20:03.734Z,39.60
2022-11-14T18:22:50.458Z,37.30
2022-11-14T18:25:37.583Z,33.30
2022-11-14T18:28:24.467Z,36.00
2022-11-14T18:31:12.452Z,33.50
2022-11-14T18:33:59.737Z,36.20
2022-11-14T18:36:47.378Z,32.90
2022-11-14T18:39:34.225Z,31.70
2022-11-14T18:42:20.493Z,35.40
2022-11-14T18:45:07.655Z,38.20
2022-11-14T18:47:54.838Z,37.00
2022-11-14T18:50:41.389Z,41.00
2022-11-14T18:53:32.628Z,42.90
2022-11-14T18:56:21.402Z,52.30
2022-11-14T18:59:09.129Z,51.60
2022-11-14T19:01:56.444Z,47.80
2022-11-14T19:04:43.268Z,54.40
2022-11-14T19:07:30.630Z,46.30
2022-11-14T19:10:18.108Z,40.10
2022-11-14T19:13:04.660Z,35.60
2022-11-14T19:15:51.522Z,30.90
2022-11-14T19:18:38.218Z,29.10
2022-11-14T19:21:25.108Z,29.50
2022-11-14T19:24:12.015Z,28.30
2022-11-14T19:26:59.455Z,33.40
2022-11-14T19:29:46.572Z,31.00
2022-11-14T19:32:34.644Z,25.20
2022-11-14T19:35:21.608Z,28.50
2022-11-14T19:38:09.073Z,29.00
2022-11-14T19:40:58.651Z,35.70
2022-11-14T19:43:49.746Z,35.50
2022-11-14T19:46:36.991Z,36.60
2022-11-14T19:49:27.314Z,45.60
2022-11-14T19:52:14.156Z,38.40
2022-11-14T19:55:00.876Z,36.70
2022-11-14T19:57:48.035Z,31.10
2022-11-14T20:00:34.511Z,36.00
2022-11-14T20:03:21.534Z,43.30
2022-11-14T20:06:26.360Z,43.20
2022-11-14T20:09:13.369Z,71.00
2022-11-14T20:11:59.686Z,53.20
2022-11-14T20:14:46.429Z,72.80
2022-11-14T20:17:33.309Z,60.30
2022-11-14T20:20:20.330Z,49.60
2022-11-14T20:23:07.133Z,48.70
2022-11-14T20:25:54.243Z,41.00
2022-11-14T20:28:42.371Z,42.40
2022-11-14T20:31:30.735Z,47.30
2022-11-14T20:34:17.384Z,39.20
2022-11-14T20:37:10.893Z,42.50
2022-11-14T20:39:58.220Z,38.10
2022-11-14T20:42:49.189Z,31.00
2022-11-14T20:45:35.632Z,26.60
2022-11-14T20:48:22.546Z,28.30
2022-11-14T20:51:20.665Z,32.10
2022-11-14T20:54:09.387Z,28.00
2022-11-14T20:56:55.995Z,26.60
2022-11-14T20:59:42.842Z,27.70
2022-11-14T21:02:29.438Z,28.90
2022-11-14T21:05:16.357Z,49.30
2022-11-14T21:08:03.678Z,43.30
2022-11-14T21:10:50.929Z,38.60
2022-11-14T21:13:57.826Z,67.10
2022-11-14T21:16:44.419Z,48.00
2022-11-14T21:19:31.062Z,24.40
2022-11-14T21:22:17.847Z,27.10
2022-11-14T21:25:05.132Z,24.60
2022-11-14T21:27:51.996Z,28.80
2022-11-14T21:30:38.792Z,33.50
2022-11-14T21:33:27.808Z,33.50
2022-11-14T21:39:22.549Z,30.40
2022-11-14T21:42:12.897Z,24.90
2022-11-14T21:45:02.215Z,28.80
2022-11-14T21:47:48.609Z,31.50
2022-11-14T21:50:35.201Z,33.70
2022-11-14T21:53:21.637Z,32.70
2022-11-14T21:56:19.235Z,47.90
2022-11-14T21:59:13.187Z,46.20
2022-11-14T22:02:18.637Z,50.90
2022-11-14T22:05:05.312Z,51.40
2022-11-14T22:07:52.042Z,30.80
2022-11-14T22:10:38.763Z,23.10
2022-11-14T22:13:25.486Z,28.80
2022-11-14T22:16:16.154Z,24.20
2022-11-14T22:19:05.531Z,18.70
2022-11-14T22:21:53.525Z,22.80
2022-11-14T22:24:41.564Z,19.90
2022-11-14T22:27:28.350Z,21.40
2022-11-14T22:30:15.044Z,20.20
2022-11-14T22:33:02.076Z,17.30
2022-11-14T22:35:48.762Z,24.50
2022-11-14T22:38:37.228Z,19.70
2022-11-14T22:41:31.520Z,18.10
2022-11-14T22:44:18.964Z,21.60
2022-11-14T22:47:05.740Z,31.60
2022-11-14T22:49:52.676Z,24.00
2022-11-14T22:52:38.934Z,54.00
2022-11-14T22:55:25.392Z,8.80
2022-11-14T22:58:12.286Z,18.40
2022-11-14T23:00:59.411Z,16.70
2022-11-14T23:03:48.376Z,13.10
2022-11-14T23:06:35.381Z,17.60
2022-11-14T23:09:22.468Z,12.00
2022-11-14T23:12:09.281Z,12.10
2022-11-14T23:14:56.055Z,14.90
2022-11-14T23:17:43.145Z,14.80
2022-11-14T23:20:30.031Z,13.10
2022-11-14T23:23:17.195Z,9.70
2022-11-14T23:26:10.441Z,10.40
2022-11-14T23:28:57.419Z,10.90
2022-11-14T23:31:44.087Z,10.30
2022-11-14T23:34:30.874Z,13.80
2022-11-14T23:37:18.059Z,12.60
2022-11-14T23:40:05.117Z,15.20
2022-11-14T23:42:51.762Z,14.10
2022-11-14T23:45:37.992Z,35.10
2022-11-14T23:48:25.034Z,30.80
2022-11-14T23:51:14.007Z,22.70
2022-11-14T23:54:00.853Z,17.10
2022-11-14T23:56:48.025Z,15.30
2022-11-14T23:59:34.708Z,14.30
